Time;durP1;ratioP1;P1;durP2;ratioP2;P2;SDS_P1;SDS_P2;PMS_P1;PMS_P2;Temp;Humidity;BMP_temperature;BMP_pressure;BME280_temperature;BME280_humidity;BME280_pressure;Samples;Min_cycle;Max_cycle;Signal;HPM_P1;HPM_P2
2024/02/29 00:00:06;;;;;;;;;;;;;;;-2.10;100.00;98888.31;4967885;28;20031;-92
2024/02/29 00:02:32;;;;;;;1.10;1.10;;;;;;;-2.14;100.00;98885.34;4981991;28;19924;-93
2024/02/29 00:04:58;;;;;;;1.10;1.10;;;;;;;-2.35;100.00;98880.22;4978798;28;20135;-96
2024/02/29 00:07:23;;;;;;;1.10;1.10;;;;;;;-2.28;100.00;98880.69;4980871;28;20046;-94
2024/02/29 00:09:49;;;;;;;1.20;1.20;;;;;;;-2.41;100.00;98877.06;4946833;28;20054;-94
2024/02/29 00:12:14;;;;;;;1.15;1.15;;;;;;;-2.22;100.00;98876.88;4971319;28;20023;-94
2024/02/29 00:14:41;;;;;;;1.20;1.20;;;;;;;-2.18;100.00;98870.19;4970095;28;20167;-92
2024/02/29 00:17:06;;;;;;;1.20;1.20;;;;;;;-2.09;100.00;98869.22;4959085;28;20138;-94
2024/02/29 00:19:32;;;;;;;1.10;1.10;;;;;;;-2.01;100.00;98859.41;4961628;28;20132;-93
2024/02/29 00:21:59;;;;;;;1.20;1.20;;;;;;;-1.91;100.00;98861.94;4970374;28;20042;-93
2024/02/29 00:24:25;;;;;;;1.10;1.10;;;;;;;-1.94;100.00;98866.00;4953557;28;20035;-93
2024/02/29 00:26:50;;;;;;;1.10;1.10;;;;;;;-2.09;99.76;98866.63;4943426;28;20027;-93
2024/02/29 00:29:16;;;;;;;1.10;1.10;;;;;;;-2.08;100.00;98862.28;4943767;28;20510;-93
2024/02/29 00:31:43;;;;;;;1.20;1.20;;;;;;;-1.83;99.93;98868.66;4958714;28;20058;-93
2024/02/29 00:34:10;;;;;;;1.10;1.10;;;;;;;-2.16;100.00;98863.38;4921742;28;20197;-93
2024/02/29 00:36:35;;;;;;;1.20;1.20;;;;;;;-2.09;100.00;98861.38;4973375;28;20035;-92
2024/02/29 00:39:01;;;;;;;1.10;1.10;;;;;;;-2.03;100.00;98868.81;4948974;28;20042;-93
2024/02/29 00:41:27;;;;;;;1.17;1.17;;;;;;;-2.20;100.00;98864.84;4970602;28;20039;-93
2024/02/29 00:43:52;;;;;;;1.00;1.00;;;;;;;-2.18;100.00;98859.75;4967192;28;20042;-92
2024/02/29 00:46:18;;;;;;;1.10;1.10;;;;;;;-2.22;100.00;98861.19;4963096;28;20212;-93
2024/02/29 00:48:43;;;;;;;1.20;1.20;;;;;;;-2.21;100.00;98862.09;4948135;28;20492;-92
2024/02/29 00:51:09;;;;;;;1.08;1.08;;;;;;;-2.31;100.00;98857.81;4945067;28;20049;-91
2024/02/29 00:53:34;;;;;;;1.20;1.20;;;;;;;-2.40;100.00;98859.69;4939611;28;20117;-93
2024/02/29 00:56:00;;;;;;;1.10;1.10;;;;;;;-2.36;100.00;98853.94;4968222;28;20034;-93
2024/02/29 00:58:25;;;;;;;1.10;1.10;;;;;;;-2.36;100.00;98853.94;4942125;28;20037;-91
2024/02/29 01:00:50;;;;;;;1.10;1.10;;;;;;;-2.54;100.00;98852.44;4971217;28;20062;-92
2024/02/29 01:03:16;;;;;;;1.10;1.10;;;;;;;-2.13;100.00;98853.19;4943439;28;20449;-91
2024/02/29 01:05:41;;;;;;;1.10;1.10;;;;;;;-2.06;100.00;98850.25;4943420;28;20063;-92
2024/02/29 01:08:07;;;;;;;1.20;1.20;;;;;;;-2.24;100.00;98852.31;4959904;28;20035;-91
2024/02/29 01:10:33;;;;;;;1.17;1.17;;;;;;;-2.22;100.00;98850.72;4973014;28;20049;-91
2024/02/29 01:12:58;;;;;;;1.20;1.20;;;;;;;-2.19;100.00;98835.31;4957697;28;20038;-92
2024/02/29 01:15:24;;;;;;;1.20;1.20;;;;;;;-2.28;100.00;98834.56;4944034;28;20425;-93
2024/02/29 01:17:50;;;;;;;1.20;1.20;;;;;;;-2.37;100.00;98826.00;4944583;28;20405;-91
2024/02/29 01:20:16;;;;;;;1.20;1.20;;;;;;;-2.45;100.00;98825.34;4941568;28;20401;-94
2024/02/29 01:22:42;;;;;;;1.10;1.10;;;;;;;-2.49;100.00;98825.94;4952616;28;20487;-92
2024/02/29 01:25:08;;;;;;;1.20;1.20;;;;;;;-2.63;100.00;98829.13;4939463;28;20037;-93
2024/02/29 01:27:34;;;;;;;1.20;1.20;;;;;;;-2.40;100.00;98829.25;4965338;28;20043;-93
2024/02/29 01:30:02;;;;;;;1.20;1.20;;;;;;;-2.30;100.00;98822.16;4940745;28;20086;-92
2024/02/29 01:32:27;;;;;;;1.20;1.20;;;;;;;-2.33;100.00;98822.84;4955857;28;20054;-93
2024/02/29 01:34:52;;;;;;;1.10;1.10;;;;;;;-2.34;100.00;98821.94;4954905;28;20042;-93
2024/02/29 01:37:18;;;;;;;1.10;1.10;;;;;;;-2.36;100.00;98820.88;4953864;28;20047;-93
2024/02/29 01:39:43;;;;;;;1.20;1.20;;;;;;;-2.36;99.91;98813.03;4950280;28;20121;-93
2024/02/29 01:42:10;;;;;;;1.20;1.20;;;;;;;-2.64;100.00;98812.50;4941229;28;20039;-93
2024/02/29 01:44:57;;;;;;;1.10;1.10;;;;;;;-2.60;100.00;98814.59;4939000;28;20045;-92
2024/02/29 01:47:26;;;;;;;1.20;1.20;;;;;;;-2.51;100.00;98819.66;4937071;28;20074;-92
2024/02/29 01:49:58;;;;;;;1.20;1.20;;;;;;;-2.56;100.00;98810.53;4958575;28;20027;-91
2024/02/29 01:52:26;;;;;;;1.20;1.20;;;;;;;-2.65;100.00;98810.69;4933497;28;20502;-92
2024/02/29 01:54:52;;;;;;;1.10;1.10;;;;;;;-2.67;100.00;98811.38;4958739;28;20049;-93
2024/02/29 01:57:19;;;;;;;1.20;1.20;;;;;;;-2.69;100.00;98803.41;4941635;28;20026;-92
2024/02/29 01:59:46;;;;;;;1.13;1.13;;;;;;;-2.64;100.00;98801.16;4956261;28;20093;-92
2024/02/29 02:02:12;;;;;;;1.10;1.10;;;;;;;-2.84;100.00;98804.75;4966840;28;20042;-90
2024/02/29 02:04:38;;;;;;;1.20;1.20;;;;;;;-2.93;100.00;98806.63;4933767;28;20381;-92
2024/02/29 02:07:04;;;;;;;1.20;1.20;;;;;;;-2.94;100.00;98794.34;4940399;28;20031;-92
2024/02/29 02:09:30;;;;;;;1.20;1.20;;;;;;;-2.87;100.00;98801.91;4948797;28;20485;-93
2024/02/29 02:11:56;;;;;;;1.20;1.20;;;;;;;-3.05;100.00;98798.69;4944690;28;20038;-94
2024/02/29 02:14:22;;;;;;;1.20;1.20;;;;;;;-3.02;100.00;98793.72;4942980;28;20118;-93
2024/02/29 02:16:51;;;;;;;1.10;1.10;;;;;;;-2.96;100.00;98786.41;4958533;28;20136;-94
2024/02/29 02:19:17;;;;;;;1.10;1.10;;;;;;;-3.15;100.00;98790.91;4949315;28;20035;-93
2024/02/29 02:21:43;;;;;;;1.15;1.15;;;;;;;-3.27;100.00;98785.56;4953467;28;20417;-93
2024/02/29 02:24:09;;;;;;;1.10;1.10;;;;;;;-3.13;100.00;98790.22;4966123;28;20130;-94
2024/02/29 02:26:35;;;;;;;1.20;1.20;;;;;;;-3.04;100.00;98787.47;4969172;28;20048;-93
2024/02/29 02:29:04;;;;;;;1.20;1.20;;;;;;;-2.93;100.00;98783.13;4952385;28;20344;-94
2024/02/29 02:31:30;;;;;;;1.20;1.20;;;;;;;-2.99;100.00;98773.09;4951110;28;20043;-94
2024/02/29 02:33:56;;;;;;;1.20;1.20;;;;;;;-2.97;100.00;98768.00;4942401;28;20090;-93
2024/02/29 02:36:22;;;;;;;1.10;1.10;;;;;;;-2.97;100.00;98770.59;4957027;28;20047;-93
2024/02/29 02:38:49;;;;;;;1.10;1.10;;;;;;;-2.87;100.00;98768.91;4953293;28;20075;-93
2024/02/29 02:41:14;;;;;;;1.20;1.20;;;;;;;-2.97;100.00;98763.72;4952206;28;20030;-94
2024/02/29 02:43:40;;;;;;;1.20;1.20;;;;;;;-2.98;100.00;98759.25;4950322;28;20045;-93
2024/02/29 02:46:06;;;;;;;1.20;1.20;;;;;;;-2.95;100.00;98756.00;4966223;28;20050;-94
2024/02/29 02:48:32;;;;;;;1.10;1.10;;;;;;;-3.18;100.00;98760.25;4938823;28;20137;-94
2024/02/29 02:50:58;;;;;;;1.20;1.20;;;;;;;-3.00;100.00;98763.44;4942868;28;20086;-93
2024/02/29 02:53:24;;;;;;;1.20;1.20;;;;;;;-3.04;100.00;98756.16;4957266;28;20031;-93
2024/02/29 02:55:50;;;;;;;1.20;1.20;;;;;;;-3.10;100.00;98751.34;4945346;28;20092;-93
2024/02/29 02:58:16;;;;;;;1.20;1.20;;;;;;;-3.18;100.00;98756.72;4957089;28;20031;-94
2024/02/29 03:00:41;;;;;;;1.10;1.10;;;;;;;-3.01;100.00;98755.50;4940272;28;20035;-93
2024/02/29 03:03:08;;;;;;;1.20;1.20;;;;;;;-2.86;100.00;98751.53;4945635;28;20429;-93
2024/02/29 03:05:33;;;;;;;1.20;1.20;;;;;;;-2.92;100.00;98744.13;4955410;28;20043;-93
2024/02/29 03:07:59;;;;;;;1.20;1.20;;;;;;;-3.08;100.00;98743.63;4926056;28;20042;-92
2024/02/29 03:10:24;;;;;;;1.13;1.13;;;;;;;-3.15;100.00;98739.63;4950313;28;20034;-93
2024/02/29 03:12:50;;;;;;;1.20;1.20;;;;;;;-2.92;100.00;98745.81;4956651;28;20045;-93
2024/02/29 03:15:16;;;;;;;1.13;1.13;;;;;;;-2.91;100.00;98732.88;4950901;28;20042;-92
2024/02/29 03:17:43;;;;;;;1.20;1.20;;;;;;;-3.08;100.00;98727.06;4941502;28;20035;-92
2024/02/29 03:20:12;;;;;;;1.20;1.20;;;;;;;-3.31;100.00;98728.69;4950239;28;20482;-92
2024/02/29 03:22:41;;;;;;;1.20;1.20;;;;;;;-3.06;100.00;98723.81;4946271;28;20505;-94
2024/02/29 03:25:09;;;;;;;1.10;1.10;;;;;;;-3.17;100.00;98720.31;4957681;28;20053;-95
2024/02/29 03:27:35;;;;;;;1.20;1.20;;;;;;;-3.19;100.00;98721.91;4956389;28;20035;-94
2024/02/29 03:30:01;;;;;;;1.20;1.20;;;;;;;-3.15;100.00;98715.25;4968834;28;20043;-94
2024/02/29 03:32:27;;;;;;;1.20;1.20;;;;;;;-3.27;100.00;98712.53;4940072;28;20035;-94
2024/02/29 03:34:52;;;;;;;1.10;1.10;;;;;;;-3.23;100.00;98713.69;4939671;28;20466;-93
2024/02/29 03:37:18;;;;;;;1.20;1.20;;;;;;;-3.44;100.00;98724.19;4971379;28;20034;-94
2024/02/29 03:39:44;;;;;;;1.20;1.20;;;;;;;-3.57;100.00;98720.44;4962508;28;20031;-94
2024/02/29 03:42:09;;;;;;;1.20;1.20;;;;;;;-3.43;100.00;98718.19;4939799;28;20635;-93
2024/02/29 03:44:36;;;;;;;1.15;1.15;;;;;;;-3.47;100.00;98716.09;4965841;28;20046;-93
2024/02/29 03:47:01;;;;;;;1.20;1.20;;;;;;;-3.36;100.00;98714.38;4939471;28;20031;-93
2024/02/29 03:49:27;;;;;;;1.10;1.10;;;;;;;-3.20;100.00;98708.72;4963989;28;20390;-94
2024/02/29 03:51:52;;;;;;;1.10;1.10;;;;;;;-3.49;100.00;98712.47;4936985;28;20125;-93
2024/02/29 03:54:18;;;;;;;1.20;1.20;;;;;;;-3.42;100.00;98716.47;4956541;28;20043;-94
2024/02/29 03:56:43;;;;;;;1.20;1.20;;;;;;;-3.42;100.00;98717.38;4966796;28;20056;-94
2024/02/29 03:59:09;;;;;;;1.20;1.20;;;;;;;-3.21;100.00;98713.03;4955175;28;20489;-93
2024/02/29 04:01:36;;;;;;;1.13;1.13;;;;;;;-3.26;100.00;98710.81;4938445;28;20046;-92
2024/02/29 04:04:02;;;;;;;1.20;1.20;;;;;;;-3.47;100.00;98708.28;4955540;28;20058;-92
2024/02/29 04:06:27;;;;;;;1.20;1.20;;;;;;;-3.36;100.00;98704.84;4969921;28;20563;-94
2024/02/29 04:08:53;;;;;;;1.20;1.20;;;;;;;-3.43;100.00;98715.56;4954844;28;20113;-93
2024/02/29 04:11:18;;;;;;;1.20;1.20;;;;;;;-3.29;100.00;98711.50;4958807;28;20050;-92
2024/02/29 04:13:45;;;;;;;1.10;1.10;;;;;;;-3.54;100.00;98711.19;4955464;28;20057;-92
2024/02/29 04:16:11;;;;;;;1.08;1.08;;;;;;;-3.72;100.00;98709.63;4938615;28;20039;-93
2024/02/29 04:18:39;;;;;;;1.10;1.10;;;;;;;-3.53;100.00;98710.38;4949552;28;20047;-92
2024/02/29 04:21:04;;;;;;;1.20;1.20;;;;;;;-3.39;100.00;98704.63;4958964;28;20037;-93
2024/02/29 04:23:30;;;;;;;1.20;1.20;;;;;;;-3.33;100.00;98703.28;4968029;28;20039;-95
2024/02/29 04:25:55;;;;;;;1.20;1.20;;;;;;;-3.47;100.00;98700.44;4945072;28;20141;-92
2024/02/29 04:28:22;;;;;;;1.20;1.20;;;;;;;-3.43;100.00;98702.53;4967563;28;20054;-92
2024/02/29 04:30:47;;;;;;;1.20;1.20;;;;;;;-3.33;100.00;98704.19;4942265;28;20063;-92
2024/02/29 04:33:14;;;;;;;1.10;1.10;;;;;;;-3.65;100.00;98706.75;4953956;28;21053;-91
2024/02/29 04:35:40;;;;;;;1.20;1.20;;;;;;;-3.73;100.00;98703.53;4976549;28;20058;-92
2024/02/29 04:38:05;;;;;;;1.10;1.10;;;;;;;-3.68;100.00;98697.00;4955789;28;20074;-92
2024/02/29 04:40:31;;;;;;;1.20;1.20;;;;;;;-3.70;100.00;98703.75;4955480;28;20507;-92
2024/02/29 04:42:56;;;;;;;1.20;1.20;;;;;;;-3.73;100.00;98706.13;4962101;28;20822;-92
2024/02/29 04:45:26;;;;;;;1.20;1.20;;;;;;;-3.78;100.00;98702.22;4961318;28;20076;-92
2024/02/29 04:47:52;;;;;;;1.20;1.20;;;;;;;-3.70;100.00;98705.44;4950980;28;20026;-92
2024/02/29 04:50:18;;;;;;;1.10;1.10;;;;;;;-3.61;100.00;98701.00;4984983;28;20015;-94
2024/02/29 04:52:44;;;;;;;1.20;1.20;;;;;;;-3.41;100.00;98705.25;4956721;28;20015;-94
2024/02/29 04:55:10;;;;;;;1.20;1.20;;;;;;;-3.20;100.00;98691.38;4960014;28;20038;-92
2024/02/29 04:57:36;;;;;;;1.20;1.20;;;;;;;-3.16;100.00;98689.94;4952454;28;20082;-91
2024/02/29 05:00:01;;;;;;;1.10;1.10;;;;;;;-3.11;100.00;98686.00;4964698;28;20027;-92
2024/02/29 05:02:27;;;;;;;1.10;1.10;;;;;;;-3.24;100.00;98693.63;4967989;28;20038;-92
2024/02/29 05:04:53;;;;;;;1.20;1.20;;;;;;;-3.24;100.00;98693.63;4976968;28;20037;-93
2024/02/29 05:07:19;;;;;;;1.10;1.10;;;;;;;-3.32;100.00;98684.25;4971852;28;20050;-93
2024/02/29 05:09:44;;;;;;;1.10;1.10;;;;;;;-3.52;99.78;98686.13;4971104;28;20034;-92
2024/02/29 05:12:09;;;;;;;1.10;1.10;;;;;;;-3.66;99.85;98691.91;4971087;28;20050;-92
2024/02/29 05:14:35;;;;;;;1.10;1.10;;;;;;;-3.78;100.00;98677.84;4954607;28;20039;-94
2024/02/29 05:17:00;;;;;;;1.10;1.10;;;;;;;-3.82;99.83;98683.59;4972922;28;20039;-93
2024/02/29 05:19:26;;;;;;;1.10;1.10;;;;;;;-3.84;100.00;98675.63;4973184;28;20039;-92
2024/02/29 05:21:51;;;;;;;1.20;1.20;;;;;;;-3.90;100.00;98683.84;4988636;28;20062;-90
2024/02/29 05:24:18;;;;;;;1.13;1.13;;;;;;;-3.76;100.00;98679.78;4972099;28;20035;-92
2024/02/29 05:26:44;;;;;;;1.20;1.20;;;;;;;-4.07;100.00;98681.53;4971735;28;20042;-91
2024/02/29 05:29:11;;;;;;;1.10;1.10;;;;;;;-3.90;100.00;98669.91;4972295;28;20265;-93
2024/02/29 05:31:38;;;;;;;1.20;1.20;;;;;;;-3.84;100.00;98673.03;4967996;28;20063;-94
2024/02/29 05:34:04;;;;;;;1.20;1.20;;;;;;;-4.06;100.00;98672.03;4982018;28;20061;-93
2024/02/29 05:36:31;;;;;;;1.20;1.20;;;;;;;-3.95;100.00;98666.00;4972636;28;20058;-94
2024/02/29 05:38:57;;;;;;;1.20;1.20;;;;;;;-3.90;100.00;98669.91;4971674;28;20070;-92
2024/02/29 05:41:22;;;;;;;1.20;1.20;;;;;;;-4.07;100.00;98657.16;4961073;28;20081;-93
2024/02/29 05:43:48;;;;;;;1.20;1.20;;;;;;;-3.95;100.00;98660.81;4976020;28;20027;-94
2024/02/29 05:46:14;;;;;;;1.20;1.20;;;;;;;-4.17;100.00;98647.66;4942229;28;20035;-94
2024/02/29 05:48:40;;;;;;;1.30;1.30;;;;;;;-3.98;100.00;98653.63;4954333;28;20038;-92
2024/02/29 05:51:07;;;;;;;1.20;1.20;;;;;;;-4.16;100.00;98657.31;4953360;28;20039;-93
2024/02/29 05:53:33;;;;;;;1.10;1.10;;;;;;;-4.13;100.00;98666.28;4965282;28;20039;-93
2024/02/29 05:55:58;;;;;;;1.20;1.20;;;;;;;-4.16;100.00;98659.91;4936401;28;20366;-94
2024/02/29 05:58:30;;;;;;;1.10;1.10;;;;;;;-4.00;100.00;98652.59;4940396;28;20042;-92
2024/02/29 06:00:55;;;;;;;1.20;1.20;;;;;;;-4.06;100.00;98653.78;4957235;28;20063;-93
2024/02/29 06:03:21;;;;;;;1.20;1.20;;;;;;;-3.92;100.00;98650.66;4960689;28;20057;-93
2024/02/29 06:05:47;;;;;;;1.15;1.15;;;;;;;-3.77;100.00;98643.19;4963619;28;20015;-93
2024/02/29 06:08:17;;;;;;;1.20;1.20;;;;;;;-3.63;100.00;98640.03;4991648;28;20046;-94
2024/02/29 06:10:46;;;;;;;1.20;1.20;;;;;;;-3.56;100.00;98634.50;4963860;28;20027;-95
2024/02/29 06:13:12;;;;;;;1.20;1.20;;;;;;;-3.48;100.00;98629.94;4978777;28;20090;-91
2024/02/29 06:15:37;;;;;;;1.13;1.13;;;;;;;-3.47;100.00;98636.97;4983240;28;20034;-91
2024/02/29 06:18:04;;;;;;;1.20;1.20;;;;;;;-3.48;100.00;98629.94;4940910;28;20099;-93
2024/02/29 06:20:30;;;;;;;1.20;1.20;;;;;;;-3.50;100.00;98627.16;4973042;28;20015;-95
2024/02/29 06:22:58;;;;;;;1.10;1.10;;;;;;;-3.60;99.67;98632.44;4986983;28;20030;-95
2024/02/29 06:25:24;;;;;;;1.10;1.10;;;;;;;-3.61;99.08;98628.91;4954825;28;20031;-96
2024/02/29 06:27:56;;;;;;;1.20;1.20;;;;;;;-3.60;98.91;98624.59;4961168;28;20039;-95
2024/02/29 06:30:31;;;;;;;1.30;1.30;;;;;;;-3.58;99.05;98627.34;4974139;28;20031;-93
2024/02/29 06:33:17;;;;;;;1.20;1.20;;;;;;;-3.64;99.28;98622.53;4963080;28;20027;-94
2024/02/29 06:53:00;;;;;;;1.20;1.20;;;;;;;-2.23;96.48;98612.84;5819654;23;20474;-94
2024/02/29 06:55:27;;;;;;;1.20;1.20;;;;;;;-1.98;95.55;98600.81;4945822;28;20061;-96
2024/02/29 07:01:41;;;;;;;1.10;1.10;;;;;;;-1.50;91.64;98589.56;4939897;28;20061;-96
2024/02/29 07:08:57;;;;;;;1.20;1.20;;;;;;;-0.81;89.48;98587.59;4946997;28;20111;-94
2024/02/29 07:14:56;;;;;;;1.00;1.00;;;;;;;-0.23;88.86;98569.78;4968315;28;20043;-94
2024/02/29 07:17:48;;;;;;;1.10;1.10;;;;;;;0.23;89.89;98564.97;4915218;29;20040;-93
2024/02/29 07:20:13;;;;;;;1.10;1.10;;;;;;;0.24;88.00;98565.09;4912563;29;20048;-92
2024/02/29 07:26:28;;;;;;;0.90;0.90;;;;;;;-0.17;88.65;98564.94;4978542;28;20523;-93
2024/02/29 07:28:54;;;;;;;1.00;1.00;;;;;;;-0.03;88.12;98561.53;4961653;28;20070;-94
2024/02/29 07:31:19;;;;;;;0.98;0.98;;;;;;;0.04;88.41;98565.47;4944362;28;20176;-95
2024/02/29 07:34:37;;;;;;;1.00;1.00;;;;;;;0.62;88.02;98557.91;4928607;29;20043;-95
2024/02/29 07:37:05;;;;;;;1.10;1.10;;;;;;;0.65;86.69;98551.13;4919057;29;20140;-94
2024/02/29 07:39:31;;;;;;;1.10;1.10;;;;;;;0.81;84.62;98545.13;4934230;29;20497;-95
2024/02/29 07:41:57;;;;;;;1.00;1.00;;;;;;;1.21;86.28;98550.31;4928436;29;20090;-94
2024/02/29 07:44:25;;;;;;;1.08;1.08;;;;;;;1.68;84.53;98550.59;4940398;29;20051;-94
2024/02/29 07:46:51;;;;;;;1.00;1.00;;;;;;;1.92;82.01;98545.91;4924350;29;20047;-94
2024/02/29 07:49:17;;;;;;;1.00;1.00;;;;;;;2.58;83.36;98542.72;4933903;29;20490;-94
2024/02/29 07:51:43;;;;;;;1.10;1.10;;;;;;;2.89;81.45;98540.94;4940798;29;20103;-95
2024/02/29 07:54:09;;;;;;;1.00;1.00;;;;;;;2.93;78.11;98540.28;4958294;28;20039;-96
2024/02/29 07:56:40;;;;;;;0.80;0.80;;;;;;;3.02;79.17;98530.25;4962283;28;20050;-96
2024/02/29 07:59:06;;;;;;;0.90;0.90;;;;;;;2.96;82.87;98543.97;4948209;29;20082;-96
2024/02/29 08:01:32;;;;;;;0.93;0.93;;;;;;;3.65;81.85;98534.56;4927517;29;20047;-94
2024/02/29 08:03:58;;;;;;;0.90;0.90;;;;;;;4.19;80.58;98532.94;4948805;29;20043;-96
2024/02/29 08:06:24;;;;;;;0.90;0.90;;;;;;;4.34;79.46;98527.53;4930041;29;20027;-95
2024/02/29 08:08:53;;;;;;;0.85;0.85;;;;;;;5.28;77.83;98517.97;4938131;29;20054;-95
2024/02/29 08:11:20;;;;;;;0.80;0.80;;;;;;;5.74;77.52;98514.75;4935386;29;20032;-94
2024/02/29 08:13:53;;;;;;;0.80;0.80;;;;;;;6.25;73.84;98515.25;4932213;29;20065;-96
2024/02/29 08:16:23;;;;;;;0.80;0.80;;;;;;;6.49;74.31;98517.13;4943042;29;20035;-96
2024/02/29 08:18:50;;;;;;;0.70;0.70;;;;;;;6.47;74.26;98514.44;4950896;28;20046;-96
2024/02/29 08:21:16;;;;;;;0.75;0.75;;;;;;;6.87;73.37;98511.63;4977032;28;20099;-95
2024/02/29 08:24:11;;;;;;;0.70;0.70;;;;;;;6.51;73.99;98511.03;4949913;29;20052;-96
2024/02/29 08:27:04;;;;;;;0.80;0.80;;;;;;;6.96;74.23;98494.28;4934796;29;20039;-95
2024/02/29 08:29:30;;;;;;;0.70;0.70;;;;;;;7.28;74.82;98493.78;4943903;29;20201;-96
2024/02/29 08:31:56;;;;;;;0.70;0.70;;;;;;;7.49;72.85;98493.69;4957484;29;20043;-94
2024/02/29 08:34:23;;;;;;;0.60;0.60;;;;;;;7.63;70.04;98488.88;4913664;29;20082;-96
2024/02/29 08:36:49;;;;;;;0.70;0.70;;;;;;;8.19;70.77;98480.28;4905402;29;20070;-93
2024/02/29 08:39:15;;;;;;;0.60;0.60;;;;;;;8.27;70.51;98474.31;4919486;29;20074;-93
2024/02/29 08:41:44;;;;;;;0.63;0.63;;;;;;;8.68;70.16;98470.41;4926416;29;20715;-94
2024/02/29 08:44:11;;;;;;;0.60;0.60;;;;;;;9.29;68.69;98472.28;4926437;29;20052;-95
2024/02/29 08:46:37;;;;;;;0.60;0.60;;;;;;;8.93;67.44;98469.41;4958389;29;20047;-94
2024/02/29 08:49:05;;;;;;;0.50;0.50;;;;;;;9.00;70.22;98466.09;4942252;29;20042;-95
2024/02/29 08:51:31;;;;;;;0.60;0.60;;;;;;;10.18;67.19;98450.81;4942617;29;20055;-96
2024/02/29 08:53:57;;;;;;;0.60;0.60;;;;;;;10.35;65.54;98446.88;4935279;29;20047;-93
2024/02/29 08:56:23;;;;;;;0.40;0.40;;;;;;;9.47;62.09;98455.97;4944038;29;20035;-95
2024/02/29 08:58:49;;;;;;;0.50;0.50;;;;;;;10.69;64.16;98442.38;4940204;29;20093;-92
2024/02/29 09:01:16;;;;;;;0.40;0.40;;;;;;;10.44;61.22;98436.44;4944130;29;20051;-92
2024/02/29 09:03:43;;;;;;;0.40;0.40;;;;;;;11.07;65.18;98439.66;4944861;29;20082;-91
2024/02/29 09:06:08;;;;;;;0.40;0.40;;;;;;;11.40;64.38;98429.72;4929146;29;20094;-91
2024/02/29 09:08:36;;;;;;;0.45;0.45;;;;;;;11.96;61.10;98437.09;4946207;29;20118;-94
2024/02/29 09:11:03;;;;;;;0.40;0.40;;;;;;;12.18;62.99;98425.91;4962867;29;20043;-94
2024/02/29 09:13:32;;;;;;;0.40;0.40;;;;;;;12.11;58.85;98428.44;4944878;29;20202;-92
2024/02/29 09:15:58;;;;;;;0.30;0.30;;;;;;;12.35;62.58;98425.31;4932217;29;20067;-92
2024/02/29 09:18:23;;;;;;;0.30;0.30;;;;;;;13.00;57.69;98415.66;4951387;29;20035;-94
2024/02/29 09:20:50;;;;;;;0.35;0.35;;;;;;;13.46;57.22;98412.69;4968336;29;20053;-94
2024/02/29 09:23:15;;;;;;;0.30;0.30;;;;;;;13.14;54.56;98409.59;4933725;29;20078;-94
2024/02/29 09:25:41;;;;;;;0.30;0.30;;;;;;;13.70;56.25;98412.09;4945665;29;20043;-93
2024/02/29 09:28:08;;;;;;;0.30;0.30;;;;;;;14.11;55.10;98401.81;4940368;29;20039;-94
2024/02/29 09:30:34;;;;;;;0.30;0.30;;;;;;;14.16;52.13;98402.78;4936373;29;20023;-94
2024/02/29 09:33:00;;;;;;;0.30;0.30;;;;;;;14.50;50.71;98390.56;4973283;29;20043;-95
2024/02/29 09:35:27;;;;;;;0.30;0.30;;;;;;;14.31;50.66;98385.91;4944214;29;20054;-94
2024/02/29 09:37:52;;;;;;;0.30;0.30;;;;;;;15.22;48.37;98379.41;4962973;29;20035;-93
2024/02/29 09:40:20;;;;;;;0.30;0.30;;;;;;;15.27;47.20;98377.63;4950672;29;20034;-94
2024/02/29 09:42:47;;;;;;;0.20;0.20;;;;;;;14.69;48.20;98377.28;4951756;29;20054;-93
2024/02/29 09:45:14;;;;;;;0.20;0.20;;;;;;;15.58;46.59;98360.75;4933023;29;20039;-94
2024/02/29 09:47:41;;;;;;;0.20;0.20;;;;;;;15.68;45.17;98358.13;4930980;29;20047;-95
2024/02/29 09:50:08;;;;;;;0.30;0.30;;;;;;;13.35;51.14;98358.97;4924935;29;20023;-94
2024/02/29 09:52:36;;;;;;;0.20;0.20;;;;;;;14.40;50.01;98353.78;4923102;29;20046;-93
2024/02/29 09:55:04;;;;;;;0.20;0.20;;;;;;;15.40;46.64;98350.81;4923126;29;20035;-94
2024/02/29 09:57:34;;;;;;;0.30;0.30;;;;;;;15.31;45.96;98341.81;4938535;29;20038;-93
2024/02/29 10:00:01;;;;;;;0.20;0.20;;;;;;;16.11;44.28;98346.53;4918101;29;20047;-93
2024/02/29 10:02:31;;;;;;;0.30;0.30;;;;;;;15.87;44.38;98335.75;4941499;29;20035;-93
2024/02/29 10:04:58;;;;;;;;;;;;;;;16.32;43.77;98332.19;4939559;29;20062;-94
2024/02/29 10:07:28;;;;;;;;;;;;;;;16.44;43.45;98330.41;4929163;29;19919;-93
2024/02/29 10:09:54;;;;;;;0.30;0.30;;;;;;;16.58;43.09;98312.44;4945134;29;19914;-95
2024/02/29 10:12:20;;;;;;;0.20;0.20;;;;;;;15.52;45.80;98316.78;4921824;29;20059;-93
2024/02/29 10:15:10;;;;;;;0.30;0.30;;;;;;;15.05;47.86;98321.13;4942082;29;20047;-94
2024/02/29 10:17:37;;;;;;;0.30;0.30;;;;;;;15.64;45.26;98314.19;4939869;29;20035;-94
2024/02/29 10:20:06;;;;;;;;;;;;;;;15.67;45.38;98316.00;4940429;29;20580;-92
2024/02/29 10:22:31;;;;;;;0.30;0.30;;;;;;;17.51;41.32;98295.97;4923690;29;19922;-92
2024/02/29 10:24:57;;;;;;;0.30;0.30;;;;;;;17.39;41.01;98296.94;4956169;29;20039;-94
2024/02/29 10:27:22;;;;;;;0.20;0.20;;;;;;;16.37;43.63;98297.19;4937327;29;20099;-93
2024/02/29 10:29:51;;;;;;;0.20;0.20;;;;;;;16.28;42.68;98290.00;4953453;29;20445;-95
2024/02/29 10:32:16;;;;;;;0.30;0.30;;;;;;;15.29;44.96;98296.13;4934947;29;20027;-95
2024/02/29 10:34:41;;;;;;;0.20;0.20;;;;;;;16.65;42.82;98282.78;4939867;29;20768;-94
2024/02/29 10:37:07;;;;;;;0.30;0.30;;;;;;;17.58;39.88;98273.44;4936789;29;20145;-94
2024/02/29 10:39:34;;;;;;;0.30;0.30;;;;;;;16.30;41.85;98276.56;4933750;29;20055;-92
2024/02/29 10:42:00;;;;;;;0.20;0.20;;;;;;;16.66;41.15;98276.47;4939772;29;20085;-94
2024/02/29 10:44:32;;;;;;;0.20;0.20;;;;;;;16.05;42.02;98270.28;4962633;28;20071;-93
2024/02/29 10:47:03;;;;;;;0.30;0.30;;;;;;;14.35;48.05;98270.53;4920001;29;20051;-94
2024/02/29 10:49:46;;;;;;;0.30;0.30;;;;;;;17.51;39.95;98250.09;4937226;29;20082;-94
2024/02/29 10:52:38;;;;;;;0.25;0.25;;;;;;;18.35;38.32;98249.50;4925482;29;20041;-94
2024/02/29 10:55:10;;;;;;;0.30;0.30;;;;;;;18.39;37.42;98243.13;4955376;29;20466;-95
2024/02/29 10:57:44;;;;;;;0.20;0.20;;;;;;;18.13;38.76;98243.38;4937997;29;20102;-96
2024/02/29 11:00:11;;;;;;;0.30;0.30;;;;;;;18.66;36.95;98241.06;4950790;29;20039;-94
2024/02/29 11:02:38;;;;;;;;;;;;;;;17.06;38.64;98235.97;4958884;28;20059;-94
2024/02/29 11:05:07;;;;;;;0.20;0.20;;;;;;;16.14;42.37;98244.28;4935123;29;19950;-94
2024/02/29 11:07:59;;;;;;;0.20;0.20;;;;;;;17.64;36.86;98243.72;4953343;29;20042;-95
2024/02/29 11:10:29;;;;;;;0.20;0.20;;;;;;;14.93;42.23;98231.50;4950609;29;20140;-95
2024/02/29 11:13:00;;;;;;;0.20;0.20;;;;;;;16.65;41.07;98223.50;4950203;29;20054;-95
2024/02/29 11:15:33;;;;;;;0.30;0.30;;;;;;;16.78;38.98;98219.03;4949009;29;20054;-95
2024/02/29 11:18:01;;;;;;;0.30;0.30;;;;;;;18.65;34.93;98194.22;4937371;29;20216;-96
2024/02/29 11:20:27;;;;;;;0.30;0.30;;;;;;;19.15;35.23;98198.13;4932499;29;20058;-95
2024/02/29 11:23:05;;;;;;;;;;;;;;;16.24;39.24;98206.56;4927398;29;20047;-95
2024/02/29 11:25:30;;;;;;;0.30;0.30;;;;;;;19.29;34.41;98187.09;4949421;29;19945;-95
2024/02/29 11:28:03;;;;;;;0.30;0.30;;;;;;;17.03;36.93;98182.06;4933655;29;20377;-95
2024/02/29 11:30:32;;;;;;;0.30;0.30;;;;;;;15.88;39.79;98187.78;4966668;28;20094;-96
2024/02/29 11:33:14;;;;;;;0.30;0.30;;;;;;;16.65;38.46;98175.03;4941645;29;20027;-95
2024/02/29 11:35:44;;;;;;;0.30;0.30;;;;;;;17.42;36.67;98175.53;4940698;29;20039;-96
2024/02/29 11:38:16;;;;;;;0.30;0.30;;;;;;;18.55;34.50;98175.44;4962466;29;20054;-95
2024/02/29 11:40:45;;;;;;;0.30;0.30;;;;;;;19.26;33.42;98178.13;4948269;29;20494;-94
2024/02/29 11:43:11;;;;;;;0.30;0.30;;;;;;;18.90;34.84;98169.63;4964785;29;20051;-93
2024/02/29 11:45:49;;;;;;;0.30;0.30;;;;;;;19.63;32.95;98155.03;4942624;29;20043;-93
2024/02/29 11:48:21;;;;;;;0.30;0.30;;;;;;;17.66;36.94;98158.28;4951867;29;20039;-96
2024/02/29 11:50:50;;;;;;;0.30;0.30;;;;;;;20.10;31.85;98144.31;4951181;29;20041;-95
2024/02/29 11:53:21;;;;;;;0.30;0.30;;;;;;;20.43;32.11;98134.66;4963799;28;20050;-94
2024/02/29 11:55:54;;;;;;;0.20;0.20;;;;;;;17.37;36.64;98139.63;4959618;29;20111;-91
2024/02/29 11:58:26;;;;;;;0.20;0.20;;;;;;;18.45;36.22;98135.03;4954502;29;20051;-94
2024/02/29 12:01:04;;;;;;;0.30;0.30;;;;;;;20.27;32.54;98125.94;4938002;29;20132;-95
2024/02/29 12:03:42;;;;;;;0.25;0.25;;;;;;;19.57;34.19;98122.66;4954201;29;20369;-94
2024/02/29 12:06:10;;;;;;;0.30;0.30;;;;;;;16.88;39.04;98131.84;4954063;29;21043;-96